Ana Sayfa
METAR-TAF:

METAR-TAF

Havaalanları :

San Angelo Regional Airport (Mathis Field)

San Angelo, Teksas, Amerika Birleşik Devletleri

Enlem: 31-21-05N, Boylam: 100-29-38W, yükseklik: 584 m

Güncel hava durumu gözlemi

Rapor saat 07:51 UTC de 16 dakika önce yapıldı.
Rüzgar batıdan 4 kt
Sıcaklık 11°C
Nem 58%
Basınç 1012 hPa
Görüş mesafesi: 16.1 km
Açık gökyüzü

METAR: KSJT 140751Z AUTO 26004KT 10SM CLR 11/03 A2989 RMK AO2 SLP109 T01060033

Saat: 02:07 (08:07 UTC)

Tahmin

Rapor saat 05:20 UTC de 2 saat ve 47 dakika önce yapıldı.
Ayın 14'si saat 06 UTC'den ayın 15'si saat 06 UTC'ye kadar geçerli Tahmin
Rüzgar batıdan 5 kt
Görüş mesafesi: 10 km
25000 ft yükseklikte az bulutlu
Ayın 14'si saat 2100 UTC'den
Rüzgar güney/güneybatıdan 8 kt
Görüş mesafesi: 10 km
Açık gökyüzü

TAF: KSJT 140520Z 1406/1506 26005KT P6SM FEW250 FM142100 20008KT P6SM SKC

4.000'den fazla havaalanı için hava durumu gözlemleri ve tahminleri (METAR ve TAF raporları).

Kullanılabilir istasyonlar harita üzerinde sarı ve kırmızı noktalarla gösterilir.

İstasyonun adını görmek için fareyi noktanın üzerinde gezdirin.

Sonrasında hava gözlem ve tahminlerini görmek için tıklayın.

Haritayı değiştirmek için: yaklaştırmak için siyah artı işaretli yeşil düğmeye ve uzaklaştırmak için de eksi işaretli düğmeye hızla tıklayın; bitişik haritalar için yeşil okları kullanın.


METAR-TAF: